sensor_id;sensor_type;location;lat;lon;timestamp;P1;durP1;ratioP1;P2;durP2;ratioP2
56307;SDS011;42217;50.422;7.210;2023-05-29T00:00:28;197.07;;;188.10;;
56307;SDS011;42217;50.422;7.210;2023-05-29T00:02:54;200.80;;;191.40;;
56307;SDS011;42217;50.422;7.210;2023-05-29T00:05:19;258.75;;;246.50;;
56307;SDS011;42217;50.422;7.210;2023-05-29T00:07:45;260.85;;;248.35;;
56307;SDS011;42217;50.422;7.210;2023-05-29T00:10:11;236.18;;;225.30;;
56307;SDS011;42217;50.422;7.210;2023-05-29T00:12:37;268.85;;;256.15;;
56307;SDS011;42217;50.422;7.210;2023-05-29T00:15:04;356.92;;;339.95;;
56307;SDS011;42217;50.422;7.210;2023-05-29T00:17:30;440.83;;;418.33;;
56307;SDS011;42217;50.422;7.210;2023-05-29T00:19:59;418.48;;;397.50;;
56307;SDS011;42217;50.422;7.210;2023-05-29T00:22:26;464.98;;;441.33;;
56307;SDS011;42217;50.422;7.210;2023-05-29T00:24:52;468.60;;;444.13;;
56307;SDS011;42217;50.422;7.210;2023-05-29T00:27:18;550.80;;;520.22;;
56307;SDS011;42217;50.422;7.210;2023-05-29T00:29:44;678.58;;;639.15;;
56307;SDS011;42217;50.422;7.210;2023-05-29T00:32:10;657.75;;;620.28;;
56307;SDS011;42217;50.422;7.210;2023-05-29T00:34:36;623.83;;;589.63;;
56307;SDS011;42217;50.422;7.210;2023-05-29T00:37:02;580.72;;;549.92;;
56307;SDS011;42217;50.422;7.210;2023-05-29T00:39:28;567.63;;;537.67;;
56307;SDS011;42217;50.422;7.210;2023-05-29T00:41:53;564.65;;;534.92;;
56307;SDS011;42217;50.422;7.210;2023-05-29T00:44:20;578.85;;;548.15;;
56307;SDS011;42217;50.422;7.210;2023-05-29T00:46:46;586.55;;;554.58;;
56307;SDS011;42217;50.422;7.210;2023-05-29T00:49:14;484.00;;;459.17;;
56307;SDS011;42217;50.422;7.210;2023-05-29T00:51:42;484.00;;;458.53;;
56307;SDS011;42217;50.422;7.210;2023-05-29T00:54:08;572.77;;;541.57;;
56307;SDS011;42217;50.422;7.210;2023-05-29T00:56:39;542.53;;;514.23;;
56307;SDS011;42217;50.422;7.210;2023-05-29T00:59:09;567.57;;;537.20;;
56307;SDS011;42217;50.422;7.210;2023-05-29T01:01:36;562.53;;;532.73;;
56307;SDS011;42217;50.422;7.210;2023-05-29T01:04:02;626.80;;;592.07;;
56307;SDS011;42217;50.422;7.210;2023-05-29T01:06:31;596.37;;;564.20;;
56307;SDS011;42217;50.422;7.210;2023-05-29T01:08:57;652.07;;;614.37;;
56307;SDS011;42217;50.422;7.210;2023-05-29T01:11:29;618.50;;;584.17;;
56307;SDS011;42217;50.422;7.210;2023-05-29T01:14:05;579.60;;;548.33;;
56307;SDS011;42217;50.422;7.210;2023-05-29T01:19:29;490.90;;;466.37;;
56307;SDS011;42217;50.422;7.210;2023-05-29T01:24:49;504.07;;;478.27;;
56307;SDS011;42217;50.422;7.210;2023-05-29T01:27:19;495.07;;;469.40;;
56307;SDS011;42217;50.422;7.210;2023-05-29T01:29:50;511.23;;;484.77;;
56307;SDS011;42217;50.422;7.210;2023-05-29T01:32:19;481.00;;;456.43;;
56307;SDS011;42217;50.422;7.210;2023-05-29T01:34:46;460.63;;;437.83;;
56307;SDS011;42217;50.422;7.210;2023-05-29T01:37:12;381.53;;;363.20;;
56307;SDS011;42217;50.422;7.210;2023-05-29T01:39:38;385.80;;;367.57;;
56307;SDS011;42217;50.422;7.210;2023-05-29T01:42:04;376.73;;;358.87;;
56307;SDS011;42217;50.422;7.210;2023-05-29T01:44:31;360.53;;;343.60;;
56307;SDS011;42217;50.422;7.210;2023-05-29T01:46:56;388.10;;;369.07;;
56307;SDS011;42217;50.422;7.210;2023-05-29T01:49:23;417.13;;;397.00;;
56307;SDS011;42217;50.422;7.210;2023-05-29T01:51:49;380.93;;;362.63;;
56307;SDS011;42217;50.422;7.210;2023-05-29T01:54:15;333.90;;;318.33;;
56307;SDS011;42217;50.422;7.210;2023-05-29T01:56:41;329.63;;;314.23;;
56307;SDS011;42217;50.422;7.210;2023-05-29T01:59:07;325.87;;;310.87;;
56307;SDS011;42217;50.422;7.210;2023-05-29T02:01:33;301.20;;;287.20;;
56307;SDS011;42217;50.422;7.210;2023-05-29T02:03:59;315.67;;;301.33;;
56307;SDS011;42217;50.422;7.210;2023-05-29T02:06:25;303.90;;;290.30;;
56307;SDS011;42217;50.422;7.210;2023-05-29T02:08:51;317.60;;;302.87;;
56307;SDS011;42217;50.422;7.210;2023-05-29T02:11:16;347.53;;;331.33;;
56307;SDS011;42217;50.422;7.210;2023-05-29T02:13:42;350.63;;;334.47;;
56307;SDS011;42217;50.422;7.210;2023-05-29T02:16:08;367.33;;;349.77;;
56307;SDS011;42217;50.422;7.210;2023-05-29T02:18:33;389.10;;;370.93;;
56307;SDS011;42217;50.422;7.210;2023-05-29T02:21:02;397.17;;;377.67;;
56307;SDS011;42217;50.422;7.210;2023-05-29T02:23:27;412.47;;;392.73;;
56307;SDS011;42217;50.422;7.210;2023-05-29T02:25:53;412.53;;;392.43;;
56307;SDS011;42217;50.422;7.210;2023-05-29T02:28:19;420.90;;;400.83;;
56307;SDS011;42217;50.422;7.210;2023-05-29T02:30:45;427.00;;;406.17;;
56307;SDS011;42217;50.422;7.210;2023-05-29T02:33:10;416.87;;;396.57;;
56307;SDS011;42217;50.422;7.210;2023-05-29T02:35:36;404.33;;;385.30;;
56307;SDS011;42217;50.422;7.210;2023-05-29T02:38:02;424.03;;;403.30;;
56307;SDS011;42217;50.422;7.210;2023-05-29T02:40:27;415.57;;;395.40;;
56307;SDS011;42217;50.422;7.210;2023-05-29T02:42:53;384.60;;;366.33;;
56307;SDS011;42217;50.422;7.210;2023-05-29T02:45:19;369.10;;;351.73;;
56307;SDS011;42217;50.422;7.210;2023-05-29T02:47:44;342.03;;;325.67;;
56307;SDS011;42217;50.422;7.210;2023-05-29T02:50:10;345.40;;;328.80;;
56307;SDS011;42217;50.422;7.210;2023-05-29T02:52:36;326.10;;;310.47;;
56307;SDS011;42217;50.422;7.210;2023-05-29T02:55:02;311.30;;;296.80;;
56307;SDS011;42217;50.422;7.210;2023-05-29T02:57:29;295.23;;;281.27;;
56307;SDS011;42217;50.422;7.210;2023-05-29T02:59:54;282.17;;;269.23;;
56307;SDS011;42217;50.422;7.210;2023-05-29T03:02:20;291.90;;;278.27;;
56307;SDS011;42217;50.422;7.210;2023-05-29T03:04:46;273.60;;;260.60;;
56307;SDS011;42217;50.422;7.210;2023-05-29T03:07:15;265.23;;;252.43;;
56307;SDS011;42217;50.422;7.210;2023-05-29T03:09:40;268.43;;;256.00;;
56307;SDS011;42217;50.422;7.210;2023-05-29T03:12:06;277.63;;;264.33;;
56307;SDS011;42217;50.422;7.210;2023-05-29T03:14:32;293.27;;;279.33;;
56307;SDS011;42217;50.422;7.210;2023-05-29T03:17:04;271.93;;;259.10;;
56307;SDS011;42217;50.422;7.210;2023-05-29T03:19:31;291.80;;;278.43;;
56307;SDS011;42217;50.422;7.210;2023-05-29T03:21:57;298.00;;;283.37;;
56307;SDS011;42217;50.422;7.210;2023-05-29T03:24:23;297.03;;;283.10;;
56307;SDS011;42217;50.422;7.210;2023-05-29T03:26:49;292.30;;;278.67;;
56307;SDS011;42217;50.422;7.210;2023-05-29T03:29:15;327.10;;;311.60;;
56307;SDS011;42217;50.422;7.210;2023-05-29T03:31:41;350.90;;;334.40;;
56307;SDS011;42217;50.422;7.210;2023-05-29T03:34:07;360.63;;;343.50;;
56307;SDS011;42217;50.422;7.210;2023-05-29T03:36:33;452.60;;;430.03;;
56307;SDS011;42217;50.422;7.210;2023-05-29T03:39:01;436.40;;;414.73;;
56307;SDS011;42217;50.422;7.210;2023-05-29T03:41:28;468.20;;;444.53;;
56307;SDS011;42217;50.422;7.210;2023-05-29T03:43:53;606.77;;;573.63;;
56307;SDS011;42217;50.422;7.210;2023-05-29T03:46:19;637.77;;;602.83;;
56307;SDS011;42217;50.422;7.210;2023-05-29T03:48:45;674.10;;;636.13;;
56307;SDS011;42217;50.422;7.210;2023-05-29T03:51:10;703.07;;;661.60;;
56307;SDS011;42217;50.422;7.210;2023-05-29T03:53:36;725.33;;;682.43;;
56307;SDS011;42217;50.422;7.210;2023-05-29T03:56:02;727.43;;;684.27;;
56307;SDS011;42217;50.422;7.210;2023-05-29T03:58:28;766.07;;;719.07;;
56307;SDS011;42217;50.422;7.210;2023-05-29T04:00:53;733.10;;;688.42;;
56307;SDS011;42217;50.422;7.210;2023-05-29T04:03:19;753.33;;;706.53;;
56307;SDS011;42217;50.422;7.210;2023-05-29T04:05:45;758.80;;;711.60;;
56307;SDS011;42217;50.422;7.210;2023-05-29T04:08:11;794.73;;;744.57;;
56307;SDS011;42217;50.422;7.210;2023-05-29T04:10:38;792.38;;;741.95;;
56307;SDS011;42217;50.422;7.210;2023-05-29T04:13:04;783.00;;;733.38;;
56307;SDS011;42217;50.422;7.210;2023-05-29T04:15:31;774.92;;;726.60;;
56307;SDS011;42217;50.422;7.210;2023-05-29T04:18:00;742.13;;;697.37;;
56307;SDS011;42217;50.422;7.210;2023-05-29T04:20:25;740.13;;;695.67;;
56307;SDS011;42217;50.422;7.210;2023-05-29T04:22:51;731.10;;;687.60;;
56307;SDS011;42217;50.422;7.210;2023-05-29T04:25:17;734.00;;;689.90;;
56307;SDS011;42217;50.422;7.210;2023-05-29T04:27:43;731.58;;;687.88;;
56307;SDS011;42217;50.422;7.210;2023-05-29T04:30:13;701.80;;;660.65;;
56307;SDS011;42217;50.422;7.210;2023-05-29T04:32:39;699.28;;;658.55;;
56307;SDS011;42217;50.422;7.210;2023-05-29T04:35:05;646.88;;;610.67;;
56307;SDS011;42217;50.422;7.210;2023-05-29T04:37:31;620.80;;;586.90;;
56307;SDS011;42217;50.422;7.210;2023-05-29T04:40:02;630.88;;;595.85;;
56307;SDS011;42217;50.422;7.210;2023-05-29T04:42:35;588.83;;;557.45;;
56307;SDS011;42217;50.422;7.210;2023-05-29T04:45:02;570.10;;;540.03;;
56307;SDS011;42217;50.422;7.210;2023-05-29T04:47:30;604.17;;;571.75;;
56307;SDS011;42217;50.422;7.210;2023-05-29T04:49:58;530.60;;;503.38;;
56307;SDS011;42217;50.422;7.210;2023-05-29T04:52:24;581.38;;;550.47;;
56307;SDS011;42217;50.422;7.210;2023-05-29T04:54:51;751.22;;;705.55;;
56307;SDS011;42217;50.422;7.210;2023-05-29T04:57:17;764.15;;;717.08;;
56307;SDS011;42217;50.422;7.210;2023-05-29T04:59:43;764.83;;;717.90;;
56307;SDS011;42217;50.422;7.210;2023-05-29T05:02:08;767.83;;;719.80;;
56307;SDS011;42217;50.422;7.210;2023-05-29T05:04:34;776.40;;;728.23;;
56307;SDS011;42217;50.422;7.210;2023-05-29T05:07:00;771.33;;;723.60;;
56307;SDS011;42217;50.422;7.210;2023-05-29T05:09:28;783.58;;;734.08;;
56307;SDS011;42217;50.422;7.210;2023-05-29T05:11:54;775.30;;;726.47;;
56307;SDS011;42217;50.422;7.210;2023-05-29T05:14:20;779.72;;;730.80;;
56307;SDS011;42217;50.422;7.210;2023-05-29T05:16:47;754.40;;;707.63;;
56307;SDS011;42217;50.422;7.210;2023-05-29T05:19:13;771.25;;;722.95;;
56307;SDS011;42217;50.422;7.210;2023-05-29T05:21:38;763.28;;;716.13;;
56307;SDS011;42217;50.422;7.210;2023-05-29T05:24:04;770.63;;;722.45;;
56307;SDS011;42217;50.422;7.210;2023-05-29T05:26:30;759.03;;;711.42;;
56307;SDS011;42217;50.422;7.210;2023-05-29T05:28:55;763.42;;;715.42;;
56307;SDS011;42217;50.422;7.210;2023-05-29T05:31:21;786.17;;;736.50;;
56307;SDS011;42217;50.422;7.210;2023-05-29T05:33:47;781.03;;;732.17;;
56307;SDS011;42217;50.422;7.210;2023-05-29T05:36:13;786.70;;;737.03;;
56307;SDS011;42217;50.422;7.210;2023-05-29T05:38:39;790.95;;;740.80;;
56307;SDS011;42217;50.422;7.210;2023-05-29T05:41:05;795.58;;;745.13;;
56307;SDS011;42217;50.422;7.210;2023-05-29T05:43:31;780.55;;;730.92;;
56307;SDS011;42217;50.422;7.210;2023-05-29T05:45:57;765.80;;;718.42;;
56307;SDS011;42217;50.422;7.210;2023-05-29T05:48:22;754.80;;;708.50;;
56307;SDS011;42217;50.422;7.210;2023-05-29T05:50:48;783.42;;;733.30;;
56307;SDS011;42217;50.422;7.210;2023-05-29T05:53:15;795.88;;;745.00;;
56307;SDS011;42217;50.422;7.210;2023-05-29T05:55:41;775.95;;;727.10;;
56307;SDS011;42217;50.422;7.210;2023-05-29T05:58:07;780.15;;;731.08;;
56307;SDS011;42217;50.422;7.210;2023-05-29T06:00:33;765.67;;;718.13;;
56307;SDS011;42217;50.422;7.210;2023-05-29T06:02:59;750.95;;;704.78;;
56307;SDS011;42217;50.422;7.210;2023-05-29T06:05:25;821.00;;;767.42;;
56307;SDS011;42217;50.422;7.210;2023-05-29T06:07:51;824.65;;;770.55;;
56307;SDS011;42217;50.422;7.210;2023-05-29T06:10:17;837.67;;;782.85;;
56307;SDS011;42217;50.422;7.210;2023-05-29T06:12:42;824.28;;;770.25;;
56307;SDS011;42217;50.422;7.210;2023-05-29T06:15:08;847.10;;;791.38;;
56307;SDS011;42217;50.422;7.210;2023-05-29T06:17:34;801.80;;;749.50;;
56307;SDS011;42217;50.422;7.210;2023-05-29T06:20:00;815.70;;;762.30;;
56307;SDS011;42217;50.422;7.210;2023-05-29T06:22:25;823.58;;;769.22;;
56307;SDS011;42217;50.422;7.210;2023-05-29T06:24:51;819.05;;;765.25;;
56307;SDS011;42217;50.422;7.210;2023-05-29T06:27:17;780.05;;;730.83;;
56307;SDS011;42217;50.422;7.210;2023-05-29T06:29:43;753.80;;;707.13;;
56307;SDS011;42217;50.422;7.210;2023-05-29T06:32:09;775.20;;;726.35;;
56307;SDS011;42217;50.422;7.210;2023-05-29T06:34:35;818.28;;;765.00;;
56307;SDS011;42217;50.422;7.210;2023-05-29T06:37:01;800.67;;;748.70;;
56307;SDS011;42217;50.422;7.210;2023-05-29T06:39:26;814.17;;;761.10;;
56307;SDS011;42217;50.422;7.210;2023-05-29T06:41:52;773.75;;;724.53;;
56307;SDS011;42217;50.422;7.210;2023-05-29T06:44:18;761.28;;;713.53;;
56307;SDS011;42217;50.422;7.210;2023-05-29T06:46:43;800.92;;;749.70;;
56307;SDS011;42217;50.422;7.210;2023-05-29T06:49:12;801.78;;;749.65;;
56307;SDS011;42217;50.422;7.210;2023-05-29T06:51:38;761.38;;;714.03;;
56307;SDS011;42217;50.422;7.210;2023-05-29T06:54:04;722.78;;;679.83;;
56307;SDS011;42217;50.422;7.210;2023-05-29T06:56:29;715.28;;;672.03;;
56307;SDS011;42217;50.422;7.210;2023-05-29T06:58:55;645.38;;;609.25;;
56307;SDS011;42217;50.422;7.210;2023-05-29T07:01:21;660.00;;;622.22;;
56307;SDS011;42217;50.422;7.210;2023-05-29T07:03:51;626.60;;;592.05;;
56307;SDS011;42217;50.422;7.210;2023-05-29T07:06:17;648.67;;;612.08;;
56307;SDS011;42217;50.422;7.210;2023-05-29T07:08:43;572.85;;;542.38;;
56307;SDS011;42217;50.422;7.210;2023-05-29T07:11:08;627.83;;;593.22;;
56307;SDS011;42217;50.422;7.210;2023-05-29T07:13:34;578.92;;;547.92;;
56307;SDS011;42217;50.422;7.210;2023-05-29T07:16:00;561.95;;;531.97;;
56307;SDS011;42217;50.422;7.210;2023-05-29T07:18:26;561.25;;;531.90;;
56307;SDS011;42217;50.422;7.210;2023-05-29T07:20:52;534.33;;;505.95;;
56307;SDS011;42217;50.422;7.210;2023-05-29T07:23:21;536.13;;;507.38;;
56307;SDS011;42217;50.422;7.210;2023-05-29T07:25:46;503.30;;;477.42;;
56307;SDS011;42217;50.422;7.210;2023-05-29T07:28:12;503.85;;;477.15;;
56307;SDS011;42217;50.422;7.210;2023-05-29T07:30:38;479.23;;;455.30;;
56307;SDS011;42217;50.422;7.210;2023-05-29T07:33:04;468.55;;;444.80;;
56307;SDS011;42217;50.422;7.210;2023-05-29T07:35:30;518.70;;;491.90;;
56307;SDS011;42217;50.422;7.210;2023-05-29T07:37:57;517.40;;;490.83;;
56307;SDS011;42217;50.422;7.210;2023-05-29T07:40:23;549.55;;;520.67;;
56307;SDS011;42217;50.422;7.210;2023-05-29T07:42:49;557.83;;;528.15;;
56307;SDS011;42217;50.422;7.210;2023-05-29T07:45:15;596.75;;;563.92;;
56307;SDS011;42217;50.422;7.210;2023-05-29T07:47:40;567.40;;;536.90;;
56307;SDS011;42217;50.422;7.210;2023-05-29T07:50:06;563.20;;;533.20;;
56307;SDS011;42217;50.422;7.210;2023-05-29T07:52:33;525.30;;;498.45;;
56307;SDS011;42217;50.422;7.210;2023-05-29T07:54:58;546.25;;;517.25;;
56307;SDS011;42217;50.422;7.210;2023-05-29T07:57:26;536.42;;;508.35;;
56307;SDS011;42217;50.422;7.210;2023-05-29T07:59:52;532.88;;;505.58;;
56307;SDS011;42217;50.422;7.210;2023-05-29T08:02:19;550.15;;;520.25;;
56307;SDS011;42217;50.422;7.210;2023-05-29T08:04:44;550.78;;;521.60;;
56307;SDS011;42217;50.422;7.210;2023-05-29T08:07:11;534.05;;;506.15;;
56307;SDS011;42217;50.422;7.210;2023-05-29T08:09:37;547.65;;;518.50;;
56307;SDS011;42217;50.422;7.210;2023-05-29T08:12:02;577.92;;;547.25;;
56307;SDS011;42217;50.422;7.210;2023-05-29T08:14:28;571.88;;;541.28;;
56307;SDS011;42217;50.422;7.210;2023-05-29T08:16:54;599.83;;;566.85;;
56307;SDS011;42217;50.422;7.210;2023-05-29T08:19:19;572.25;;;541.20;;
56307;SDS011;42217;50.422;7.210;2023-05-29T08:21:45;571.88;;;540.90;;
56307;SDS011;42217;50.422;7.210;2023-05-29T08:24:11;549.20;;;520.40;;
56307;SDS011;42217;50.422;7.210;2023-05-29T08:26:37;604.50;;;570.00;;
56307;SDS011;42217;50.422;7.210;2023-05-29T08:29:03;522.88;;;495.65;;
56307;SDS011;42217;50.422;7.210;2023-05-29T08:31:29;581.22;;;550.00;;
56307;SDS011;42217;50.422;7.210;2023-05-29T08:33:55;537.92;;;509.25;;
56307;SDS011;42217;50.422;7.210;2023-05-29T08:36:21;494.08;;;469.23;;
56307;SDS011;42217;50.422;7.210;2023-05-29T08:38:47;492.23;;;467.10;;
56307;SDS011;42217;50.422;7.210;2023-05-29T08:41:59;465.65;;;441.70;;
56307;SDS011;42217;50.422;7.210;2023-05-29T08:44:15;457.35;;;434.60;;
56307;SDS011;42217;50.422;7.210;2023-05-29T08:46:46;428.98;;;407.75;;
56307;SDS011;42217;50.422;7.210;2023-05-29T08:49:14;457.38;;;434.60;;
56307;SDS011;42217;50.422;7.210;2023-05-29T08:51:44;502.40;;;476.42;;
56307;SDS011;42217;50.422;7.210;2023-05-29T08:54:15;501.30;;;474.88;;
56307;SDS011;42217;50.422;7.210;2023-05-29T08:56:41;569.08;;;537.92;;
56307;SDS011;42217;50.422;7.210;2023-05-29T08:59:07;517.67;;;490.73;;
56307;SDS011;42217;50.422;7.210;2023-05-29T09:01:34;505.20;;;478.83;;
56307;SDS011;42217;50.422;7.210;2023-05-29T09:04:01;509.17;;;482.48;;
56307;SDS011;42217;50.422;7.210;2023-05-29T09:06:27;530.35;;;501.77;;
56307;SDS011;42217;50.422;7.210;2023-05-29T09:08:53;500.83;;;474.38;;
56307;SDS011;42217;50.422;7.210;2023-05-29T09:11:19;493.88;;;468.38;;
56307;SDS011;42217;50.422;7.210;2023-05-29T09:13:45;464.70;;;441.08;;
56307;SDS011;42217;50.422;7.210;2023-05-29T09:16:11;498.85;;;472.67;;
56307;SDS011;42217;50.422;7.210;2023-05-29T09:18:40;461.73;;;437.80;;
56307;SDS011;42217;50.422;7.210;2023-05-29T09:21:10;469.63;;;445.70;;
56307;SDS011;42217;50.422;7.210;2023-05-29T09:23:51;456.48;;;432.65;;
56307;SDS011;42217;50.422;7.210;2023-05-29T09:26:18;457.80;;;434.50;;
56307;SDS011;42217;50.422;7.210;2023-05-29T09:28:47;456.65;;;433.40;;
56307;SDS011;42217;50.422;7.210;2023-05-29T09:31:13;460.92;;;437.63;;
56307;SDS011;42217;50.422;7.210;2023-05-29T09:33:48;543.05;;;514.28;;
56307;SDS011;42217;50.422;7.210;2023-05-29T09:36:22;536.33;;;507.67;;
56307;SDS011;42217;50.422;7.210;2023-05-29T09:38:48;554.53;;;524.92;;
56307;SDS011;42217;50.422;7.210;2023-05-29T09:41:20;562.45;;;531.83;;
56307;SDS011;42217;50.422;7.210;2023-05-29T09:43:51;570.55;;;539.30;;
56307;SDS011;42217;50.422;7.210;2023-05-29T09:46:19;577.95;;;546.28;;
56307;SDS011;42217;50.422;7.210;2023-05-29T09:48:46;522.88;;;495.05;;
56307;SDS011;42217;50.422;7.210;2023-05-29T09:51:19;550.90;;;521.47;;
56307;SDS011;42217;50.422;7.210;2023-05-29T09:53:47;569.92;;;539.10;;
56307;SDS011;42217;50.422;7.210;2023-05-29T09:56:13;604.70;;;570.85;;
56307;SDS011;42217;50.422;7.210;2023-05-29T09:58:42;638.08;;;601.55;;
56307;SDS011;42217;50.422;7.210;2023-05-29T10:01:13;641.92;;;604.67;;
56307;SDS011;42217;50.422;7.210;2023-05-29T10:03:40;640.08;;;603.65;;
56307;SDS011;42217;50.422;7.210;2023-05-29T10:06:07;638.65;;;602.15;;
56307;SDS011;42217;50.422;7.210;2023-05-29T10:08:45;681.60;;;641.38;;
56307;SDS011;42217;50.422;7.210;2023-05-29T10:11:16;701.90;;;660.10;;
56307;SDS011;42217;50.422;7.210;2023-05-29T10:13:48;677.78;;;637.72;;
56307;SDS011;42217;50.422;7.210;2023-05-29T10:16:16;675.30;;;635.58;;
56307;SDS011;42217;50.422;7.210;2023-05-29T10:18:50;680.88;;;640.38;;
56307;SDS011;42217;50.422;7.210;2023-05-29T10:21:21;663.38;;;625.03;;
56307;SDS011;42217;50.422;7.210;2023-05-29T10:23:48;656.13;;;618.13;;
56307;SDS011;42217;50.422;7.210;2023-05-29T10:26:18;661.35;;;622.58;;
56307;SDS011;42217;50.422;7.210;2023-05-29T10:31:33;670.97;;;631.33;;
56307;SDS011;42217;50.422;7.210;2023-05-29T10:34:21;714.00;;;671.40;;
56307;SDS011;42217;50.422;7.210;2023-05-29T10:37:09;716.90;;;673.10;;
56307;SDS011;42217;50.422;7.210;2023-05-29T10:39:54;702.10;;;659.92;;
56307;SDS011;42217;50.422;7.210;2023-05-29T10:47:56;722.30;;;678.10;;
56307;SDS011;42217;50.422;7.210;2023-05-29T10:50:43;709.72;;;666.85;;
56307;SDS011;42217;50.422;7.210;2023-05-29T10:53:16;722.38;;;678.63;;
56307;SDS011;42217;50.422;7.210;2023-05-29T10:55:48;713.40;;;670.08;;
56307;SDS011;42217;50.422;7.210;2023-05-29T10:58:23;734.53;;;688.78;;
56307;SDS011;42217;50.422;7.210;2023-05-29T11:00:58;737.10;;;690.80;;
56307;SDS011;42217;50.422;7.210;2023-05-29T11:03:24;750.65;;;703.28;;
56307;SDS011;42217;50.422;7.210;2023-05-29T11:06:01;745.50;;;699.08;;
56307;SDS011;42217;50.422;7.210;2023-05-29T11:11:20;750.28;;;703.15;;
56307;SDS011;42217;50.422;7.210;2023-05-29T11:14:02;760.00;;;711.95;;
56307;SDS011;42217;50.422;7.210;2023-05-29T11:18:56;768.60;;;719.67;;
56307;SDS011;42217;50.422;7.210;2023-05-29T11:23:52;738.30;;;692.55;;
56307;SDS011;42217;50.422;7.210;2023-05-29T11:26:23;730.83;;;685.78;;
56307;SDS011;42217;50.422;7.210;2023-05-29T11:28:51;732.40;;;687.33;;
56307;SDS011;42217;50.422;7.210;2023-05-29T11:31:17;737.10;;;691.80;;
56307;SDS011;42217;50.422;7.210;2023-05-29T11:33:49;621.38;;;587.08;;
56307;SDS011;42217;50.422;7.210;2023-05-29T11:36:19;551.50;;;522.00;;
56307;SDS011;42217;50.422;7.210;2023-05-29T11:38:46;524.30;;;496.67;;
56307;SDS011;42217;50.422;7.210;2023-05-29T11:41:13;626.45;;;590.92;;
56307;SDS011;42217;50.422;7.210;2023-05-29T11:43:42;576.30;;;544.97;;
56307;SDS011;42217;50.422;7.210;2023-05-29T11:46:17;665.17;;;626.75;;
56307;SDS011;42217;50.422;7.210;2023-05-29T11:48:45;626.42;;;591.47;;
56307;SDS011;42217;50.422;7.210;2023-05-29T11:51:11;687.10;;;646.97;;
56307;SDS011;42217;50.422;7.210;2023-05-29T11:53:39;619.80;;;585.45;;
56307;SDS011;42217;50.422;7.210;2023-05-29T11:56:09;600.72;;;567.20;;
56307;SDS011;42217;50.422;7.210;2023-05-29T11:58:38;544.33;;;515.47;;
56307;SDS011;42217;50.422;7.210;2023-05-29T12:01:05;632.50;;;596.85;;
56307;SDS011;42217;50.422;7.210;2023-05-29T12:03:44;562.70;;;532.42;;
56307;SDS011;42217;50.422;7.210;2023-05-29T12:06:10;634.72;;;598.97;;
56307;SDS011;42217;50.422;7.210;2023-05-29T12:08:37;627.50;;;592.45;;
56307;SDS011;42217;50.422;7.210;2023-05-29T12:11:03;618.60;;;584.05;;
56307;SDS011;42217;50.422;7.210;2023-05-29T12:13:29;586.60;;;554.78;;
56307;SDS011;42217;50.422;7.210;2023-05-29T12:16:04;666.25;;;627.17;;
56307;SDS011;42217;50.422;7.210;2023-05-29T12:18:31;572.58;;;541.40;;
56307;SDS011;42217;50.422;7.210;2023-05-29T12:20:57;615.50;;;580.83;;
56307;SDS011;42217;50.422;7.210;2023-05-29T12:23:24;575.90;;;545.13;;
56307;SDS011;42217;50.422;7.210;2023-05-29T12:25:51;564.75;;;534.33;;
56307;SDS011;42217;50.422;7.210;2023-05-29T12:28:18;623.22;;;588.03;;
56307;SDS011;42217;50.422;7.210;2023-05-29T12:30:44;612.33;;;578.45;;
56307;SDS011;42217;50.422;7.210;2023-05-29T12:33:30;579.05;;;547.63;;
56307;SDS011;42217;50.422;7.210;2023-05-29T12:36:04;647.03;;;610.30;;
56307;SDS011;42217;50.422;7.210;2023-05-29T12:38:31;645.97;;;609.10;;
56307;SDS011;42217;50.422;7.210;2023-05-29T12:40:57;685.55;;;645.08;;
56307;SDS011;42217;50.422;7.210;2023-05-29T12:43:23;652.58;;;614.88;;
56307;SDS011;42217;50.422;7.210;2023-05-29T12:45:55;665.30;;;626.40;;
56307;SDS011;42217;50.422;7.210;2023-05-29T12:48:25;644.10;;;607.60;;
56307;SDS011;42217;50.422;7.210;2023-05-29T12:50:52;640.00;;;603.53;;
56307;SDS011;42217;50.422;7.210;2023-05-29T12:53:17;664.50;;;625.78;;
56307;SDS011;42217;50.422;7.210;2023-05-29T12:55:43;687.67;;;646.80;;
56307;SDS011;42217;50.422;7.210;2023-05-29T12:58:11;665.97;;;627.35;;
56307;SDS011;42217;50.422;7.210;2023-05-29T13:00:38;717.72;;;673.70;;
56307;SDS011;42217;50.422;7.210;2023-05-29T13:03:05;714.05;;;670.03;;
56307;SDS011;42217;50.422;7.210;2023-05-29T13:05:32;714.08;;;670.28;;
56307;SDS011;42217;50.422;7.210;2023-05-29T13:07:58;736.83;;;691.10;;
56307;SDS011;42217;50.422;7.210;2023-05-29T13:10:27;742.33;;;695.63;;
56307;SDS011;42217;50.422;7.210;2023-05-29T13:12:53;737.85;;;691.85;;
56307;SDS011;42217;50.422;7.210;2023-05-29T13:15:21;732.75;;;686.85;;
56307;SDS011;42217;50.422;7.210;2023-05-29T13:17:47;727.70;;;682.42;;
56307;SDS011;42217;50.422;7.210;2023-05-29T13:20:13;728.40;;;683.53;;
56307;SDS011;42217;50.422;7.210;2023-05-29T13:22:40;708.75;;;665.28;;
56307;SDS011;42217;50.422;7.210;2023-05-29T13:25:08;713.75;;;669.67;;
56307;SDS011;42217;50.422;7.210;2023-05-29T13:27:40;676.47;;;635.72;;
56307;SDS011;42217;50.422;7.210;2023-05-29T13:30:08;679.05;;;637.75;;
56307;SDS011;42217;50.422;7.210;2023-05-29T13:32:35;646.58;;;607.38;;
56307;SDS011;42217;50.422;7.210;2023-05-29T13:35:01;674.75;;;633.88;;
56307;SDS011;42217;50.422;7.210;2023-05-29T13:37:28;638.45;;;601.17;;
56307;SDS011;42217;50.422;7.210;2023-05-29T13:39:54;641.10;;;603.72;;
56307;SDS011;42217;50.422;7.210;2023-05-29T13:42:19;633.53;;;596.63;;
56307;SDS011;42217;50.422;7.210;2023-05-29T13:44:46;527.33;;;498.83;;
56307;SDS011;42217;50.422;7.210;2023-05-29T13:47:13;585.28;;;552.33;;
56307;SDS011;42217;50.422;7.210;2023-05-29T13:49:39;582.15;;;549.45;;
56307;SDS011;42217;50.422;7.210;2023-05-29T13:52:05;610.10;;;574.80;;
56307;SDS011;42217;50.422;7.210;2023-05-29T13:54:30;593.30;;;559.83;;
56307;SDS011;42217;50.422;7.210;2023-05-29T13:57:00;566.40;;;535.05;;
56307;SDS011;42217;50.422;7.210;2023-05-29T13:59:26;554.78;;;524.42;;
56307;SDS011;42217;50.422;7.210;2023-05-29T14:01:52;461.70;;;437.52;;
56307;SDS011;42217;50.422;7.210;2023-05-29T14:04:18;540.72;;;511.08;;
56307;SDS011;42217;50.422;7.210;2023-05-29T14:06:43;564.42;;;532.90;;
56307;SDS011;42217;50.422;7.210;2023-05-29T14:09:10;507.27;;;480.27;;
56307;SDS011;42217;50.422;7.210;2023-05-29T14:11:36;525.63;;;496.95;;
56307;SDS011;42217;50.422;7.210;2023-05-29T14:14:02;491.35;;;465.45;;
56307;SDS011;42217;50.422;7.210;2023-05-29T14:16:28;517.88;;;489.77;;
56307;SDS011;42217;50.422;7.210;2023-05-29T14:18:54;501.73;;;474.85;;